createdAt,value
2023-04-19T00:00:54.320Z,26.87
2023-04-19T00:01:54.470Z,26.84
2023-04-19T00:02:54.543Z,26.87
2023-04-19T00:03:54.467Z,26.85
2023-04-19T00:04:54.424Z,26.82
2023-04-19T00:05:54.349Z,26.72
2023-04-19T00:06:54.318Z,26.82
2023-04-19T00:07:54.352Z,26.80
2023-04-19T00:08:54.318Z,26.88
2023-04-19T00:09:54.327Z,26.77
2023-04-19T00:10:54.317Z,26.80
2023-04-19T00:11:54.324Z,26.73
2023-04-19T00:12:54.314Z,26.82
2023-04-19T00:13:54.325Z,26.82
2023-04-19T00:14:54.320Z,26.84
2023-04-19T00:15:54.327Z,26.85
2023-04-19T00:16:54.366Z,26.82
2023-04-19T00:17:54.577Z,26.80
2023-04-19T00:18:54.326Z,26.75
2023-04-19T00:19:54.326Z,26.81
2023-04-19T00:20:54.315Z,26.80
2023-04-19T00:21:54.332Z,26.82
2023-04-19T00:22:54.318Z,26.80
2023-04-19T00:23:54.357Z,26.80
2023-04-19T00:24:54.327Z,26.80
2023-04-19T00:25:54.334Z,26.77
2023-04-19T00:26:54.312Z,26.84
2023-04-19T00:27:54.316Z,26.77
2023-04-19T00:28:54.313Z,26.85
2023-04-19T00:29:54.332Z,26.81
2023-04-19T00:30:54.355Z,26.80
2023-04-19T00:31:54.328Z,26.75
2023-04-19T00:32:54.374Z,26.75
2023-04-19T00:33:54.322Z,26.80
2023-04-19T00:34:54.315Z,26.75
2023-04-19T00:35:54.319Z,26.81
2023-04-19T00:36:54.310Z,26.77
2023-04-19T00:37:54.320Z,26.81
2023-04-19T00:38:54.308Z,26.73
2023-04-19T00:39:54.392Z,26.73
2023-04-19T00:40:54.307Z,26.82
2023-04-19T00:41:54.346Z,26.76
2023-04-19T00:42:54.308Z,26.67
2023-04-19T00:43:54.360Z,26.80
2023-04-19T00:44:54.312Z,26.76
2023-04-19T00:45:54.389Z,26.80
2023-04-19T00:46:54.308Z,26.80
2023-04-19T00:47:54.346Z,26.75
2023-04-19T00:48:54.307Z,26.76
2023-04-19T00:49:54.312Z,26.81
2023-04-19T00:50:54.306Z,26.81
2023-04-19T00:51:54.313Z,26.73
2023-04-19T00:52:54.304Z,26.69
2023-04-19T00:53:54.313Z,26.73
2023-04-19T00:54:54.456Z,26.70
2023-04-19T00:55:54.328Z,26.77
2023-04-19T00:56:54.310Z,26.82
2023-04-19T00:57:54.310Z,26.82
2023-04-19T00:58:54.309Z,26.76
2023-04-19T00:59:54.314Z,26.73
2023-04-19T01:00:54.312Z,26.82
2023-04-19T01:01:54.416Z,26.73
2023-04-19T01:02:54.411Z,26.75
2023-04-19T01:03:54.407Z,26.82
2023-04-19T01:04:54.305Z,26.82
2023-04-19T01:05:54.312Z,26.80
2023-04-19T01:06:54.302Z,26.73
2023-04-19T01:07:54.320Z,26.76
2023-04-19T01:08:54.301Z,26.77
2023-04-19T01:09:54.309Z,26.76
2023-04-19T01:10:54.297Z,26.76
2023-04-19T01:11:54.328Z,26.73
2023-04-19T01:12:54.298Z,26.75
2023-04-19T01:13:54.311Z,26.84
2023-04-19T01:14:54.299Z,26.77
2023-04-19T01:15:54.338Z,26.73
2023-04-19T01:16:54.309Z,26.77
2023-04-19T01:17:54.319Z,26.80
2023-04-19T01:18:54.299Z,26.80
2023-04-19T01:19:54.308Z,26.72
2023-04-19T01:20:54.297Z,26.80
2023-04-19T01:21:54.303Z,26.76
2023-04-19T01:22:54.296Z,26.80
2023-04-19T01:23:54.305Z,26.70
2023-04-19T01:24:54.296Z,26.75
2023-04-19T01:25:54.301Z,26.80
2023-04-19T01:26:54.296Z,26.80
2023-04-19T01:27:54.333Z,26.67
2023-04-19T01:28:54.297Z,26.81
2023-04-19T01:29:54.301Z,26.73
2023-04-19T01:30:54.324Z,26.80
2023-04-19T01:31:54.306Z,26.77
2023-04-19T01:32:54.316Z,26.73
2023-04-19T01:33:54.301Z,26.75
2023-04-19T01:34:54.290Z,26.75
2023-04-19T01:35:54.301Z,26.75
2023-04-19T01:36:54.294Z,26.76
2023-04-19T01:37:54.302Z,26.80
2023-04-19T01:38:54.316Z,26.76
2023-04-19T01:39:54.299Z,26.73
2023-04-19T01:40:54.291Z,26.75
2023-04-19T01:41:54.299Z,26.67
2023-04-19T01:42:54.293Z,26.66
2023-04-19T01:43:54.333Z,26.80
2023-04-19T01:44:54.290Z,26.75
2023-04-19T01:45:54.297Z,26.72
2023-04-19T01:46:54.371Z,26.69
2023-04-19T01:47:54.334Z,26.76
2023-04-19T01:48:54.287Z,26.73
2023-04-19T01:49:54.309Z,26.76
2023-04-19T01:50:54.304Z,26.75
2023-04-19T01:51:54.293Z,26.75
2023-04-19T01:52:54.286Z,26.75
2023-04-19T01:53:54.292Z,26.73
2023-04-19T01:54:54.288Z,26.76
2023-04-19T01:55:54.302Z,26.75
2023-04-19T01:56:54.286Z,26.73
2023-04-19T01:57:54.666Z,26.75
2023-04-19T01:58:54.282Z,26.77
2023-04-19T01:59:54.316Z,26.76
2023-04-19T02:00:54.288Z,26.77
2023-04-19T02:01:54.374Z,26.81
2023-04-19T02:02:54.410Z,26.80
2023-04-19T02:03:54.505Z,26.77
2023-04-19T02:04:54.303Z,26.70
2023-04-19T02:05:54.288Z,26.75
2023-04-19T02:06:54.288Z,26.73
2023-04-19T02:07:54.289Z,26.73
2023-04-19T02:08:54.284Z,26.72
2023-04-19T02:09:54.287Z,26.75
2023-04-19T02:10:54.279Z,26.81
2023-04-19T02:11:54.286Z,26.72
2023-04-19T02:12:54.280Z,26.75
2023-04-19T02:13:54.310Z,26.69
2023-04-19T02:14:54.277Z,26.72
2023-04-19T02:15:54.408Z,26.72
2023-04-19T02:16:54.370Z,26.72
2023-04-19T02:17:54.316Z,26.80
2023-04-19T02:18:54.286Z,26.80
2023-04-19T02:19:54.286Z,26.70
2023-04-19T02:20:54.284Z,26.69
2023-04-19T02:21:54.304Z,26.75
2023-04-19T02:22:54.295Z,26.69
2023-04-19T02:23:54.283Z,26.77
2023-04-19T02:24:54.278Z,26.80
2023-04-19T02:25:54.281Z,26.77
2023-04-19T02:26:54.283Z,26.76
2023-04-19T02:27:54.287Z,26.80
2023-04-19T02:28:54.282Z,26.70
2023-04-19T02:29:54.285Z,26.77
2023-04-19T02:30:54.278Z,26.72
2023-04-19T02:31:54.372Z,26.70
2023-04-19T02:32:54.285Z,26.77
2023-04-19T02:33:54.298Z,26.67
2023-04-19T02:34:54.275Z,26.80
2023-04-19T02:35:54.311Z,26.73
2023-04-19T02:36:54.276Z,26.81
2023-04-19T02:37:54.280Z,26.70
2023-04-19T02:38:54.270Z,26.73
2023-04-19T02:39:54.300Z,26.69
2023-04-19T02:40:54.275Z,26.73
2023-04-19T02:41:54.278Z,26.69
2023-04-19T02:42:54.270Z,26.77
2023-04-19T02:43:54.278Z,26.75
2023-04-19T02:44:54.268Z,26.80
2023-04-19T02:45:54.299Z,26.75
2023-04-19T02:46:54.269Z,26.73
2023-04-19T02:47:54.362Z,26.80
2023-04-19T02:48:54.272Z,26.76
2023-04-19T02:49:54.275Z,26.72
2023-04-19T02:50:54.269Z,26.75
2023-04-19T02:51:54.270Z,26.73
2023-04-19T02:52:54.269Z,26.76
2023-04-19T02:53:54.280Z,26.72
2023-04-19T02:54:54.265Z,26.69
2023-04-19T02:55:54.286Z,26.70
2023-04-19T02:56:54.263Z,26.73
2023-04-19T02:57:54.271Z,26.69
2023-04-19T02:58:54.263Z,26.65
2023-04-19T02:59:54.270Z,26.72
2023-04-19T03:00:54.296Z,26.72
2023-04-19T03:01:54.269Z,26.75
2023-04-19T03:02:54.321Z,26.69
2023-04-19T03:03:54.378Z,26.72
2023-04-19T03:04:54.276Z,26.73
2023-04-19T03:05:54.271Z,26.77
2023-04-19T03:06:54.261Z,26.80
2023-04-19T03:07:54.274Z,26.72
2023-04-19T03:08:54.268Z,26.76
2023-04-19T03:09:54.277Z,26.72
2023-04-19T03:10:54.272Z,26.69
2023-04-19T03:11:54.275Z,26.69
2023-04-19T03:12:54.258Z,26.82
2023-04-19T03:13:54.272Z,26.69
2023-04-19T03:14:54.259Z,26.76
2023-04-19T03:15:54.280Z,26.65
2023-04-19T03:16:54.260Z,26.69
2023-04-19T03:17:54.349Z,26.80
2023-04-19T03:18:54.262Z,26.73
2023-04-19T03:19:54.421Z,26.77
2023-04-19T03:20:54.251Z,26.81
2023-04-19T03:21:54.268Z,26.73
2023-04-19T03:22:54.252Z,26.76
2023-04-19T03:23:54.264Z,26.76
2023-04-19T03:24:54.252Z,26.70
2023-04-19T03:25:54.258Z,26.81
2023-04-19T03:26:54.250Z,26.73
2023-04-19T03:27:54.255Z,26.77
2023-04-19T03:28:54.248Z,26.76
2023-04-19T03:29:54.253Z,26.65
2023-04-19T03:30:54.257Z,26.75
2023-04-19T03:31:54.275Z,26.73
2023-04-19T03:32:54.269Z,26.75
2023-04-19T03:33:54.269Z,26.73
2023-04-19T03:34:54.240Z,26.73
2023-04-19T03:35:54.348Z,26.77
2023-04-19T03:36:54.240Z,26.72
2023-04-19T03:37:54.249Z,26.75
2023-04-19T03:38:54.253Z,26.76
2023-04-19T03:39:54.245Z,26.66
2023-04-19T03:40:54.247Z,26.69
2023-04-19T03:41:54.272Z,26.72
2023-04-19T03:42:54.256Z,26.73
2023-04-19T03:43:54.250Z,26.77
2023-04-19T03:44:54.240Z,26.76
2023-04-19T03:45:54.268Z,26.76
2023-04-19T03:46:54.254Z,26.72
2023-04-19T03:47:54.260Z,26.69
2023-04-19T03:48:54.234Z,26.75
2023-04-19T03:49:54.261Z,26.76
2023-04-19T03:50:54.234Z,26.73
2023-04-19T03:51:54.264Z,26.73
2023-04-19T03:52:54.235Z,26.76
2023-04-19T03:53:54.244Z,26.75
2023-04-19T03:54:54.232Z,26.70
2023-04-19T03:55:54.238Z,26.69
2023-04-19T03:56:54.231Z,26.75
2023-04-19T03:57:54.244Z,26.69
2023-04-19T03:58:54.236Z,26.77
2023-04-19T03:59:54.258Z,26.73
2023-04-19T04:00:54.231Z,26.75
2023-04-19T04:01:54.491Z,26.70
2023-04-19T04:02:54.347Z,26.76
2023-04-19T04:03:54.424Z,26.76
2023-04-19T04:04:54.318Z,26.75
2023-04-19T04:05:54.239Z,26.77
2023-04-19T04:06:54.233Z,26.70
2023-04-19T04:07:54.318Z,26.63
2023-04-19T04:08:54.237Z,26.75
2023-04-19T04:09:54.234Z,26.75
2023-04-19T04:10:54.234Z,26.73
2023-04-19T04:11:54.243Z,26.73
2023-04-19T04:12:54.230Z,26.77
2023-04-19T04:13:54.229Z,26.77
2023-04-19T04:14:54.238Z,26.82
2023-04-19T04:15:54.237Z,26.82
2023-04-19T04:16:54.231Z,26.80
2023-04-19T04:17:54.269Z,26.75
2023-04-19T04:18:54.244Z,26.73
2023-04-19T04:19:54.218Z,26.72
2023-04-19T04:20:54.242Z,26.81
2023-04-19T04:21:54.222Z,26.72
2023-04-19T04:22:54.235Z,26.81
2023-04-19T04:23:54.242Z,26.69
2023-04-19T04:24:54.229Z,26.72
2023-04-19T04:25:54.216Z,26.62
2023-04-19T04:26:54.224Z,26.60
2023-04-19T04:27:54.219Z,26.66
2023-04-19T04:28:54.227Z,26.62
2023-04-19T04:29:54.222Z,26.57
2023-04-19T04:30:54.230Z,26.51
2023-04-19T04:31:54.263Z,26.44
2023-04-19T04:32:54.261Z,26.40
2023-04-19T04:33:54.229Z,26.45
2023-04-19T04:34:54.232Z,26.44
2023-04-19T04:35:54.225Z,26.45
2023-04-19T04:36:54.233Z,26.40
2023-04-19T04:37:54.225Z,26.35
2023-04-19T04:38:54.236Z,26.36
2023-04-19T04:39:54.270Z,26.36
2023-04-19T04:40:54.243Z,26.29
2023-04-19T04:41:54.240Z,26.37
2023-04-19T04:42:54.279Z,26.32
2023-04-19T04:44:08.272Z,26.29
2023-04-19T04:44:54.240Z,26.23
2023-04-19T04:45:54.264Z,26.25
2023-04-19T04:46:54.232Z,26.23
2023-04-19T04:47:54.280Z,26.21
2023-04-19T04:48:54.238Z,26.21
2023-04-19T04:49:54.228Z,26.23
2023-04-19T04:50:54.250Z,26.28
2023-04-19T04:51:54.226Z,26.23
2023-04-19T04:52:54.231Z,26.25
2023-04-19T04:53:54.227Z,26.18
2023-04-19T04:54:54.232Z,26.23
2023-04-19T04:55:54.248Z,26.13
2023-04-19T04:56:54.241Z,26.06
2023-04-19T04:57:54.222Z,26.17
2023-04-19T04:58:54.224Z,26.15
2023-04-19T04:59:54.222Z,26.17
2023-04-19T05:00:54.240Z,26.05
2023-04-19T05:01:54.216Z,26.05
2023-04-19T05:02:54.327Z,25.99
2023-04-19T05:03:54.250Z,26.01
2023-04-19T05:04:54.224Z,26.02
2023-04-19T05:05:54.225Z,25.98
2023-04-19T05:06:54.219Z,26.12
2023-04-19T05:07:54.204Z,25.98
2023-04-19T05:08:54.215Z,25.92
2023-04-19T05:09:54.211Z,25.92
2023-04-19T05:10:54.213Z,25.94
2023-04-19T05:11:54.225Z,25.88
2023-04-19T05:12:54.228Z,25.90
2023-04-19T05:13:54.209Z,25.91
2023-04-19T05:14:54.215Z,25.94
2023-04-19T05:15:54.216Z,25.91
2023-04-19T05:16:54.231Z,25.92
2023-04-19T05:17:54.251Z,25.97
2023-04-19T05:18:54.232Z,25.95
2023-04-19T05:19:54.204Z,26.01
2023-04-19T05:20:54.201Z,26.07
2023-04-19T05:21:54.232Z,26.02
2023-04-19T05:22:54.198Z,25.98
2023-04-19T05:23:54.236Z,25.94
2023-04-19T05:24:54.212Z,26.07
2023-04-19T05:25:54.246Z,26.13
2023-04-19T05:26:54.196Z,26.12
2023-04-19T05:27:54.216Z,26.09
2023-04-19T05:28:54.200Z,26.10
2023-04-19T05:29:54.208Z,26.13
2023-04-19T05:30:54.216Z,26.07
2023-04-19T05:31:54.345Z,26.17
2023-04-19T05:32:54.233Z,26.10
2023-04-19T05:33:54.197Z,26.07
2023-04-19T05:34:54.193Z,26.18
2023-04-19T05:35:54.185Z,26.21
2023-04-19T05:36:54.191Z,26.21
2023-04-19T05:37:54.182Z,26.25
2023-04-19T05:38:54.199Z,26.20
2023-04-19T05:39:54.194Z,26.30
2023-04-19T05:40:54.187Z,26.36
2023-04-19T05:41:54.181Z,26.36
2023-04-19T05:42:54.189Z,26.39
2023-04-19T05:43:54.203Z,26.39
2023-04-19T05:44:54.186Z,26.37
2023-04-19T05:45:54.221Z,26.39
2023-04-19T05:46:54.187Z,26.37
2023-04-19T05:47:54.248Z,26.44
2023-04-19T05:48:54.190Z,26.44
2023-04-19T05:49:54.180Z,26.48
2023-04-19T05:50:54.184Z,26.48
2023-04-19T05:51:54.176Z,26.44
2023-04-19T05:52:54.181Z,26.50
2023-04-19T05:53:55.194Z,26.39
2023-04-19T05:54:54.189Z,26.40
2023-04-19T05:55:54.175Z,26.50
2023-04-19T05:56:54.182Z,26.55
2023-04-19T05:57:54.181Z,26.54
2023-04-19T05:58:54.178Z,26.54
2023-04-19T05:59:54.193Z,26.48
2023-04-19T06:00:54.185Z,26.57
2023-04-19T06:01:54.212Z,26.52
2023-04-19T06:02:54.284Z,26.67
2023-04-19T06:03:54.463Z,26.65
2023-04-19T06:04:54.259Z,26.63
2023-04-19T06:05:54.185Z,26.69
2023-04-19T06:06:54.174Z,26.70
2023-04-19T06:07:59.557Z,26.72
2023-04-19T06:08:54.990Z,26.62
2023-04-19T06:09:54.190Z,26.73
2023-04-19T06:10:58.408Z,26.75
2023-04-19T06:11:54.187Z,26.80
2023-04-19T06:12:54.170Z,26.80
2023-04-19T06:13:54.164Z,26.77
2023-04-19T06:14:54.169Z,26.72
2023-04-19T06:15:54.244Z,26.77
2023-04-19T06:16:54.173Z,26.81
2023-04-19T06:17:54.215Z,26.80
2023-04-19T06:18:54.169Z,26.75
2023-04-19T06:19:54.168Z,26.84
2023-04-19T06:20:54.166Z,26.87
2023-04-19T06:21:54.172Z,26.82
2023-04-19T06:22:54.171Z,26.81
2023-04-19T06:23:54.159Z,26.87
2023-04-19T06:24:54.176Z,26.97
2023-04-19T06:25:54.161Z,26.84
2023-04-19T06:26:54.166Z,26.91
2023-04-19T06:27:54.160Z,26.94
2023-04-19T06:28:54.176Z,26.94
2023-04-19T06:29:54.161Z,26.97
2023-04-19T06:30:54.173Z,26.88
2023-04-19T06:31:54.373Z,26.99
2023-04-19T06:32:54.194Z,26.89
2023-04-19T06:33:54.159Z,27.00
2023-04-19T06:34:54.170Z,27.02
2023-04-19T06:35:54.157Z,27.02
2023-04-19T06:36:54.163Z,27.03
2023-04-19T06:37:54.158Z,27.07
2023-04-19T06:38:54.168Z,27.02
2023-04-19T06:39:54.155Z,27.06
2023-04-19T06:40:54.165Z,27.04
2023-04-19T06:41:54.156Z,27.10
2023-04-19T06:42:54.169Z,27.09
2023-04-19T06:43:54.156Z,27.13
2023-04-19T06:44:54.162Z,27.06
2023-04-19T06:45:54.208Z,27.12
2023-04-19T06:46:54.172Z,27.10
2023-04-19T06:47:54.190Z,27.12
2023-04-19T06:48:54.166Z,27.10
2023-04-19T06:49:54.155Z,27.10
2023-04-19T06:50:54.160Z,27.13
2023-04-19T06:51:54.155Z,27.19
2023-04-19T06:52:54.164Z,27.24
2023-04-19T06:53:54.169Z,27.25
2023-04-19T06:54:54.164Z,27.25
2023-04-19T06:55:54.157Z,27.19
2023-04-19T06:56:54.185Z,27.18
2023-04-19T06:57:54.154Z,27.19
2023-04-19T06:58:54.161Z,27.24
2023-04-19T06:59:54.153Z,27.21
2023-04-19T07:00:54.162Z,27.25
2023-04-19T07:01:54.376Z,27.19
2023-04-19T07:02:54.460Z,27.27
2023-04-19T07:03:57.009Z,27.22
2023-04-19T07:04:54.174Z,27.28
2023-04-19T07:05:54.154Z,27.27
2023-04-19T07:06:54.161Z,27.28
2023-04-19T07:07:54.162Z,27.25
2023-04-19T07:08:54.288Z,27.22
2023-04-19T07:09:54.152Z,27.29
2023-04-19T07:10:54.173Z,27.27
2023-04-19T07:11:54.153Z,27.24
2023-04-19T07:12:54.161Z,27.21
2023-04-19T07:13:54.159Z,27.18
2023-04-19T07:14:54.157Z,27.21
2023-04-19T07:15:54.197Z,27.19
2023-04-19T07:16:54.170Z,27.19
2023-04-19T07:17:54.214Z,27.14
2023-04-19T07:18:54.179Z,27.18
2023-04-19T07:19:54.288Z,27.21
2023-04-19T07:20:54.160Z,27.13
2023-04-19T07:21:54.149Z,27.10
2023-04-19T07:22:54.156Z,27.10
2023-04-19T07:23:54.153Z,27.22
2023-04-19T07:24:54.157Z,27.18
2023-04-19T07:25:54.160Z,27.18
2023-04-19T07:26:54.157Z,27.17
2023-04-19T07:27:54.155Z,27.17
2023-04-19T07:28:54.166Z,27.13
2023-04-19T07:29:54.150Z,27.09
2023-04-19T07:30:54.207Z,27.03
2023-04-19T07:31:54.200Z,27.12
2023-04-19T07:32:54.182Z,27.12
2023-04-19T07:33:54.148Z,27.12
2023-04-19T07:34:54.163Z,27.14
2023-04-19T07:35:54.214Z,27.10
2023-04-19T07:36:54.155Z,27.09
2023-04-19T07:37:54.154Z,27.10
2023-04-19T07:38:54.162Z,27.10
2023-04-19T07:39:54.148Z,27.10
2023-04-19T07:40:54.161Z,27.10
2023-04-19T07:41:54.149Z,27.13
2023-04-19T07:42:54.154Z,27.10
2023-04-19T07:43:54.147Z,27.12
2023-04-19T07:44:54.153Z,27.06
2023-04-19T07:45:54.151Z,27.06
2023-04-19T07:46:54.226Z,27.00
2023-04-19T07:47:54.177Z,27.04
2023-04-19T07:48:54.161Z,27.04
2023-04-19T07:49:54.144Z,27.00
2023-04-19T07:50:54.166Z,27.06
2023-04-19T07:51:54.190Z,26.91
2023-04-19T07:52:54.154Z,26.94
2023-04-19T07:53:54.159Z,26.91
2023-04-19T07:54:54.149Z,26.95
2023-04-19T07:55:54.156Z,26.95
2023-04-19T07:56:54.153Z,26.94
2023-04-19T07:57:54.147Z,26.99
2023-04-19T07:59:06.665Z,26.95
2023-04-19T07:59:54.142Z,26.94
2023-04-19T08:00:54.199Z,26.92
2023-04-19T08:01:54.252Z,26.95
2023-04-19T08:02:54.366Z,26.94
2023-04-19T08:03:54.346Z,27.00
2023-04-19T08:04:54.266Z,26.99
2023-04-19T08:05:54.206Z,26.92
2023-04-19T08:06:54.165Z,26.99
2023-04-19T08:07:54.197Z,26.95
2023-04-19T08:08:54.149Z,26.95
2023-04-19T08:09:54.190Z,27.00
2023-04-19T08:10:54.148Z,26.91
2023-04-19T08:11:54.143Z,26.92
2023-04-19T08:13:04.991Z,26.88
2023-04-19T08:14:06.948Z,26.88
2023-04-19T08:15:03.859Z,26.92
2023-04-19T08:17:54.176Z,26.92
2023-04-19T08:18:54.145Z,26.94
2023-04-19T08:19:54.138Z,26.94
2023-04-19T08:20:54.158Z,27.00
2023-04-19T08:21:54.145Z,26.99
2023-04-19T08:22:54.151Z,26.97
2023-04-19T08:23:54.529Z,26.91
2023-04-19T08:24:54.155Z,26.94
2023-04-19T08:25:54.145Z,26.94
2023-04-19T08:26:54.480Z,26.95
2023-04-19T08:27:54.138Z,26.94
2023-04-19T08:28:54.148Z,26.99
2023-04-19T08:29:54.142Z,26.84
2023-04-19T08:30:54.145Z,26.92
2023-04-19T08:31:54.217Z,26.85
2023-04-19T08:32:56.917Z,26.89
2023-04-19T08:33:54.147Z,26.92
2023-04-19T08:34:54.139Z,26.89
2023-04-19T08:35:54.151Z,26.88
2023-04-19T08:37:03.494Z,26.94
2023-04-19T08:37:54.163Z,26.91
2023-04-19T08:39:04.176Z,26.92
2023-04-19T08:39:54.177Z,26.92
2023-04-19T08:40:54.137Z,26.88
2023-04-19T08:42:04.831Z,26.92
2023-04-19T08:42:54.139Z,26.81
2023-04-19T08:43:54.151Z,26.87
2023-04-19T08:45:13.621Z,26.85
2023-04-19T08:45:54.183Z,26.82
2023-04-19T08:46:54.142Z,26.82
2023-04-19T08:48:00.647Z,26.80
2023-04-19T08:48:54.276Z,26.77
2023-04-19T08:50:05.102Z,26.73
2023-04-19T08:51:54.150Z,26.63
2023-04-19T08:52:58.750Z,26.62
2023-04-19T08:53:54.141Z,26.62
2023-04-19T08:54:54.131Z,26.65
2023-04-19T08:56:10.784Z,26.50
2023-04-19T08:56:54.133Z,26.54
2023-04-19T08:57:54.138Z,26.57
2023-04-19T08:59:07.543Z,26.57
2023-04-19T08:59:54.141Z,26.57
2023-04-19T09:00:54.128Z,26.50
2023-04-19T09:01:54.164Z,26.55
2023-04-19T09:02:54.232Z,26.60
2023-04-19T09:04:02.491Z,26.48
2023-04-19T09:04:54.411Z,26.54
2023-04-19T09:05:54.332Z,26.52
2023-04-19T09:06:54.162Z,26.57
2023-04-19T09:07:54.135Z,26.55
2023-04-19T09:08:54.122Z,26.52
2023-04-19T09:10:03.002Z,26.58
2023-04-19T09:10:54.134Z,26.67
2023-04-19T09:11:54.186Z,26.55
2023-04-19T09:12:54.122Z,26.57
2023-04-19T09:13:54.135Z,26.54
2023-04-19T09:15:01.656Z,26.55
2023-04-19T09:15:54.137Z,26.55
2023-04-19T09:16:54.126Z,26.57
2023-04-19T09:17:54.247Z,26.55
2023-04-19T09:19:00.375Z,26.62
2023-04-19T09:19:54.141Z,26.55
2023-04-19T09:20:54.119Z,26.52
2023-04-19T09:21:54.719Z,26.55
2023-04-19T09:22:54.118Z,26.55
2023-04-19T09:23:54.122Z,26.55
2023-04-19T09:25:34.021Z,26.52
2023-04-19T09:26:54.123Z,26.54
2023-04-19T09:27:54.191Z,26.63
2023-04-19T09:28:54.116Z,26.60
2023-04-19T09:29:54.123Z,26.52
2023-04-19T09:31:06.693Z,26.54
2023-04-19T09:31:54.230Z,26.62
2023-04-19T09:32:54.184Z,26.63
2023-04-19T09:33:54.123Z,26.57
2023-04-19T09:34:54.111Z,26.60
2023-04-19T09:35:54.116Z,26.54
2023-04-19T09:37:04.374Z,26.51
2023-04-19T09:38:04.894Z,26.50
2023-04-19T09:38:54.107Z,26.58
2023-04-19T09:39:54.114Z,26.57
2023-04-19T09:40:54.109Z,26.55
2023-04-19T09:41:54.123Z,26.69
2023-04-19T09:44:08.851Z,26.62
2023-04-19T09:45:27.739Z,26.63
2023-04-19T09:45:54.124Z,26.62
2023-04-19T09:46:54.181Z,26.62
2023-04-19T09:47:54.170Z,26.66
2023-04-19T09:48:54.111Z,26.76
2023-04-19T09:49:54.401Z,26.72
2023-04-19T09:50:59.696Z,26.69
2023-04-19T09:51:54.108Z,26.72
2023-04-19T09:52:54.108Z,26.72
2023-04-19T09:53:54.110Z,26.69
2023-04-19T09:54:54.107Z,26.76
2023-04-19T09:56:01.220Z,26.73
2023-04-19T09:56:57.018Z,26.76
2023-04-19T09:57:54.108Z,26.73
2023-04-19T09:59:01.461Z,26.73
2023-04-19T09:59:54.143Z,26.77
2023-04-19T10:01:02.751Z,26.69
2023-04-19T10:01:54.155Z,26.76
2023-04-19T10:02:54.199Z,26.76
2023-04-19T10:03:54.463Z,26.73
2023-04-19T10:05:11.186Z,26.77
2023-04-19T10:05:54.156Z,26.73
2023-04-19T10:07:19.450Z,26.82
2023-04-19T10:07:56.711Z,26.80
2023-04-19T10:08:54.111Z,26.81
2023-04-19T10:09:56.477Z,26.89
2023-04-19T10:10:54.102Z,26.94
2023-04-19T10:11:58.064Z,26.88
2023-04-19T10:13:54.121Z,26.85
2023-04-19T10:14:54.100Z,26.77
2023-04-19T10:15:59.328Z,26.88
2023-04-19T10:16:54.134Z,26.80
2023-04-19T10:17:54.137Z,26.88
2023-04-19T10:18:54.097Z,26.81
2023-04-19T10:19:54.105Z,26.85
2023-04-19T10:20:54.099Z,26.88
2023-04-19T10:21:54.104Z,26.85
2023-04-19T10:22:54.102Z,26.91
2023-04-19T10:23:54.105Z,26.94
2023-04-19T10:24:54.101Z,26.91
2023-04-19T10:25:54.111Z,26.94
2023-04-19T10:26:54.096Z,26.91
2023-04-19T10:27:54.104Z,26.97
2023-04-19T10:28:54.097Z,26.91
2023-04-19T10:29:54.104Z,26.92
2023-04-19T10:30:54.096Z,26.88
2023-04-19T10:31:54.146Z,26.88
2023-04-19T10:32:54.194Z,26.91
2023-04-19T10:33:54.113Z,26.89
2023-04-19T10:34:54.093Z,26.95
2023-04-19T10:35:54.107Z,26.89
2023-04-19T10:36:54.096Z,26.94
2023-04-19T10:37:54.107Z,26.92
2023-04-19T10:38:54.098Z,26.97
2023-04-19T10:39:54.113Z,26.94
2023-04-19T10:40:54.106Z,26.91
2023-04-19T10:41:54.106Z,26.87
2023-04-19T10:42:54.094Z,26.89
2023-04-19T10:43:54.104Z,26.92
2023-04-19T10:44:54.095Z,26.95
2023-04-19T10:45:54.128Z,26.89
2023-04-19T10:46:54.093Z,26.92
2023-04-19T10:47:54.152Z,26.94
2023-04-19T10:48:54.098Z,26.94
2023-04-19T10:49:54.097Z,26.91
2023-04-19T10:50:54.090Z,26.97
2023-04-19T10:51:54.114Z,26.91
2023-04-19T10:52:54.096Z,26.97
2023-04-19T10:53:54.106Z,26.97
2023-04-19T10:54:54.098Z,26.91
2023-04-19T10:55:54.106Z,26.92
2023-04-19T10:56:54.095Z,26.89
2023-04-19T10:57:54.105Z,26.94
2023-04-19T10:58:54.093Z,26.89
2023-04-19T10:59:54.102Z,26.94
2023-04-19T11:00:54.090Z,26.89
2023-04-19T11:01:54.208Z,26.92
2023-04-19T11:02:54.195Z,26.94
2023-04-19T11:03:54.542Z,26.92
2023-04-19T11:04:54.092Z,26.89
2023-04-19T11:05:54.098Z,26.92
2023-04-19T11:06:54.120Z,26.82
2023-04-19T11:07:54.112Z,26.91
2023-04-19T11:08:54.099Z,26.95
2023-04-19T11:09:54.112Z,26.91
2023-04-19T11:10:54.088Z,26.94
2023-04-19T11:11:54.093Z,26.92
2023-04-19T11:12:54.096Z,26.89
2023-04-19T11:13:54.099Z,26.82
2023-04-19T11:14:54.108Z,26.92
2023-04-19T11:15:54.173Z,26.89
2023-04-19T11:16:54.213Z,26.89
2023-04-19T11:18:08.997Z,26.88
2023-04-19T11:18:54.081Z,26.76
2023-04-19T11:19:54.147Z,26.75
2023-04-19T11:20:54.091Z,26.85
2023-04-19T11:21:54.091Z,26.85
2023-04-19T11:22:54.084Z,26.85
2023-04-19T11:23:54.099Z,26.76
2023-04-19T11:24:54.094Z,26.88
2023-04-19T11:25:54.089Z,26.82
2023-04-19T11:26:55.600Z,26.88
2023-04-19T11:27:54.096Z,26.82
2023-04-19T11:28:54.086Z,26.84
2023-04-19T11:29:54.089Z,26.81
2023-04-19T11:30:54.154Z,26.81
2023-04-19T11:31:54.088Z,26.88
2023-04-19T11:32:54.132Z,26.82
2023-04-19T11:33:54.096Z,26.77
2023-04-19T11:34:54.082Z,26.87
2023-04-19T11:35:54.142Z,26.89
2023-04-19T11:36:54.083Z,26.82
2023-04-19T11:37:54.093Z,26.84
2023-04-19T11:38:54.081Z,26.84
2023-04-19T11:39:54.086Z,26.85
2023-04-19T11:40:54.079Z,26.85
2023-04-19T11:41:54.086Z,26.85
2023-04-19T11:42:54.078Z,26.91
2023-04-19T11:43:54.087Z,26.80
2023-04-19T11:44:54.079Z,26.77
2023-04-19T11:45:54.093Z,26.81
2023-04-19T11:46:54.107Z,26.88
2023-04-19T11:47:54.117Z,26.82
2023-04-19T11:48:54.082Z,26.87
2023-04-19T11:49:54.112Z,26.84
2023-04-19T11:50:54.083Z,26.84
2023-04-19T11:51:54.232Z,26.87
2023-04-19T11:52:54.083Z,26.82
2023-04-19T11:53:54.109Z,26.76
2023-04-19T11:54:54.085Z,26.72
2023-04-19T11:55:54.113Z,26.84
2023-04-19T11:56:54.077Z,26.84
2023-04-19T11:57:54.086Z,26.88
2023-04-19T11:58:54.077Z,26.80
2023-04-19T11:59:54.088Z,26.85
2023-04-19T12:00:54.084Z,26.80
2023-04-19T12:01:54.116Z,26.84
2023-04-19T12:02:54.192Z,26.85
2023-04-19T12:03:54.328Z,26.87
2023-04-19T12:04:54.239Z,26.82
2023-04-19T12:05:54.122Z,26.84
2023-04-19T12:06:54.076Z,26.82
2023-04-19T12:07:54.169Z,26.88
2023-04-19T12:08:54.079Z,26.92
2023-04-19T12:09:54.081Z,26.89
2023-04-19T12:10:54.077Z,26.87
2023-04-19T12:11:54.085Z,26.85
2023-04-19T12:12:54.078Z,26.85
2023-04-19T12:13:54.082Z,26.82
2023-04-19T12:14:54.075Z,26.91
2023-04-19T12:15:54.081Z,26.85
2023-04-19T12:16:54.092Z,26.89
2023-04-19T12:17:57.376Z,26.84
2023-04-19T12:18:54.074Z,26.88
2023-04-19T12:19:54.084Z,26.84
2023-04-19T12:20:54.091Z,26.84
2023-04-19T12:21:54.081Z,26.85
2023-04-19T12:22:54.070Z,26.89
2023-04-19T12:23:54.109Z,26.84
2023-04-19T12:24:54.072Z,26.88
2023-04-19T12:25:54.078Z,26.92
2023-04-19T12:26:55.757Z,26.88
2023-04-19T12:27:54.078Z,26.89
2023-04-19T12:28:54.070Z,26.94
2023-04-19T12:29:54.076Z,26.91
2023-04-19T12:30:54.077Z,26.84
2023-04-19T12:31:54.114Z,26.82
2023-04-19T12:32:54.090Z,26.92
2023-04-19T12:33:54.076Z,26.84
2023-04-19T12:34:54.067Z,26.87
2023-04-19T12:35:54.075Z,26.87
2023-04-19T12:36:54.066Z,26.84
2023-04-19T12:37:54.074Z,26.81
2023-04-19T12:38:54.070Z,26.76
2023-04-19T12:39:55.960Z,26.76
2023-04-19T12:40:54.063Z,26.75
2023-04-19T12:41:54.075Z,26.72
2023-04-19T12:42:54.066Z,26.70
2023-04-19T12:43:54.070Z,26.80
2023-04-19T12:44:54.076Z,26.69
2023-04-19T12:45:54.100Z,26.73
2023-04-19T12:46:54.068Z,26.72
2023-04-19T12:47:54.157Z,26.76
2023-04-19T12:48:54.067Z,26.70
2023-04-19T12:49:54.061Z,26.66
2023-04-19T12:50:54.066Z,26.67
2023-04-19T12:51:56.560Z,26.58
2023-04-19T12:52:54.090Z,26.57
2023-04-19T12:53:54.059Z,26.51
2023-04-19T12:54:54.064Z,26.62
2023-04-19T12:55:54.102Z,26.55
2023-04-19T12:56:54.070Z,26.60
2023-04-19T12:57:54.061Z,26.54
2023-04-19T12:58:54.063Z,26.60